sensor_id;sensor_type;location;lat;lon;timestamp;temperature;humidity
47354;DHT22;50657;48.830;2.282;2022-12-10T00:02:16;18.50;50.60
47354;DHT22;50657;48.830;2.282;2022-12-10T00:04:43;18.50;50.60
47354;DHT22;50657;48.830;2.282;2022-12-10T00:07:10;18.50;50.60
47354;DHT22;50657;48.830;2.282;2022-12-10T00:09:38;18.50;50.70
47354;DHT22;50657;48.830;2.282;2022-12-10T00:12:05;18.50;50.70
47354;DHT22;50657;48.830;2.282;2022-12-10T00:14:32;18.50;50.80
47354;DHT22;50657;48.830;2.282;2022-12-10T00:16:59;18.40;50.80
47354;DHT22;50657;48.830;2.282;2022-12-10T00:19:26;18.40;50.90
47354;DHT22;50657;48.830;2.282;2022-12-10T00:21:53;18.40;50.90
47354;DHT22;50657;48.830;2.282;2022-12-10T00:24:20;18.40;51.00
47354;DHT22;50657;48.830;2.282;2022-12-10T00:26:49;18.40;51.00
47354;DHT22;50657;48.830;2.282;2022-12-10T00:29:16;18.40;51.10
47354;DHT22;50657;48.830;2.282;2022-12-10T00:31:43;18.40;51.10
47354;DHT22;50657;48.830;2.282;2022-12-10T00:34:12;18.30;51.10
47354;DHT22;50657;48.830;2.282;2022-12-10T00:36:41;18.30;51.30
47354;DHT22;50657;48.830;2.282;2022-12-10T00:39:10;18.30;51.40
47354;DHT22;50657;48.830;2.282;2022-12-10T00:41:38;18.30;51.40
47354;DHT22;50657;48.830;2.282;2022-12-10T00:44:07;18.30;51.40
47354;DHT22;50657;48.830;2.282;2022-12-10T00:46:34;18.30;51.60
47354;DHT22;50657;48.830;2.282;2022-12-10T00:49:02;18.30;51.60
47354;DHT22;50657;48.830;2.282;2022-12-10T00:51:29;18.30;51.70
47354;DHT22;50657;48.830;2.282;2022-12-10T00:53:57;18.30;51.80
47354;DHT22;50657;48.830;2.282;2022-12-10T00:56:28;18.30;51.80
47354;DHT22;50657;48.830;2.282;2022-12-10T00:58:56;18.30;51.80
47354;DHT22;50657;48.830;2.282;2022-12-10T01:01:26;18.30;51.90
47354;DHT22;50657;48.830;2.282;2022-12-10T01:03:55;18.30;51.90
47354;DHT22;50657;48.830;2.282;2022-12-10T01:06:24;18.30;52.50
47354;DHT22;50657;48.830;2.282;2022-12-10T01:08:54;18.20;51.90
47354;DHT22;50657;48.830;2.282;2022-12-10T01:11:25;18.20;52.00
47354;DHT22;50657;48.830;2.282;2022-12-10T01:13:53;18.30;52.10
47354;DHT22;50657;48.830;2.282;2022-12-10T01:16:21;18.20;52.10
47354;DHT22;50657;48.830;2.282;2022-12-10T01:18:52;18.20;52.00
47354;DHT22;50657;48.830;2.282;2022-12-10T01:21:20;18.20;52.10
47354;DHT22;50657;48.830;2.282;2022-12-10T01:23:49;18.20;52.10
47354;DHT22;50657;48.830;2.282;2022-12-10T01:26:20;18.20;52.10
47354;DHT22;50657;48.830;2.282;2022-12-10T01:28:48;18.20;52.10
47354;DHT22;50657;48.830;2.282;2022-12-10T01:31:17;18.20;52.10
47354;DHT22;50657;48.830;2.282;2022-12-10T01:33:46;18.20;52.20
47354;DHT22;50657;48.830;2.282;2022-12-10T01:36:18;18.20;52.20
47354;DHT22;50657;48.830;2.282;2022-12-10T01:38:46;18.20;52.20
47354;DHT22;50657;48.830;2.282;2022-12-10T01:41:15;18.20;52.20
47354;DHT22;50657;48.830;2.282;2022-12-10T01:43:51;18.20;52.20
47354;DHT22;50657;48.830;2.282;2022-12-10T01:46:19;18.20;52.20
47354;DHT22;50657;48.830;2.282;2022-12-10T01:48:46;18.20;52.30
47354;DHT22;50657;48.830;2.282;2022-12-10T01:51:15;18.20;52.40
47354;DHT22;50657;48.830;2.282;2022-12-10T01:53:43;18.20;52.40
47354;DHT22;50657;48.830;2.282;2022-12-10T01:56:11;18.20;52.40
47354;DHT22;50657;48.830;2.282;2022-12-10T01:58:38;18.10;52.30
47354;DHT22;50657;48.830;2.282;2022-12-10T02:01:09;18.10;52.30
47354;DHT22;50657;48.830;2.282;2022-12-10T02:03:48;18.10;52.30
47354;DHT22;50657;48.830;2.282;2022-12-10T02:06:31;18.10;52.20
47354;DHT22;50657;48.830;2.282;2022-12-10T02:09:11;18.20;52.20
47354;DHT22;50657;48.830;2.282;2022-12-10T02:11:44;18.10;52.10
47354;DHT22;50657;48.830;2.282;2022-12-10T02:14:18;18.10;52.10
47354;DHT22;50657;48.830;2.282;2022-12-10T02:16:57;18.10;52.00
47354;DHT22;50657;48.830;2.282;2022-12-10T02:19:32;18.10;52.00
47354;DHT22;50657;48.830;2.282;2022-12-10T02:22:02;18.10;51.90
47354;DHT22;50657;48.830;2.282;2022-12-10T02:24:34;18.10;51.90
47354;DHT22;50657;48.830;2.282;2022-12-10T02:27:07;18.10;51.80
47354;DHT22;50657;48.830;2.282;2022-12-10T02:29:37;18.10;51.80
47354;DHT22;50657;48.830;2.282;2022-12-10T02:32:08;18.10;51.70
47354;DHT22;50657;48.830;2.282;2022-12-10T02:34:39;18.10;51.60
47354;DHT22;50657;48.830;2.282;2022-12-10T02:37:10;18.10;51.70
47354;DHT22;50657;48.830;2.282;2022-12-10T02:39:44;18.10;51.70
47354;DHT22;50657;48.830;2.282;2022-12-10T02:42:13;18.10;51.70
47354;DHT22;50657;48.830;2.282;2022-12-10T02:44:44;18.10;51.70
47354;DHT22;50657;48.830;2.282;2022-12-10T02:47:18;18.10;51.80
47354;DHT22;50657;48.830;2.282;2022-12-10T02:49:47;18.10;51.80
47354;DHT22;50657;48.830;2.282;2022-12-10T02:52:18;18.10;51.80
47354;DHT22;50657;48.830;2.282;2022-12-10T02:54:50;18.10;51.80
47354;DHT22;50657;48.830;2.282;2022-12-10T02:57:29;18.00;51.70
47354;DHT22;50657;48.830;2.282;2022-12-10T03:00:11;18.00;52.30
47354;DHT22;50657;48.830;2.282;2022-12-10T03:03:04;18.00;51.60
47354;DHT22;50657;48.830;2.282;2022-12-10T03:05:36;18.10;51.70
47354;DHT22;50657;48.830;2.282;2022-12-10T03:08:12;18.00;51.70
47354;DHT22;50657;48.830;2.282;2022-12-10T03:10:44;18.00;51.60
47354;DHT22;50657;48.830;2.282;2022-12-10T03:13:16;18.00;51.60
47354;DHT22;50657;48.830;2.282;2022-12-10T03:15:46;18.00;52.20
47354;DHT22;50657;48.830;2.282;2022-12-10T03:18:17;18.00;51.60
47354;DHT22;50657;48.830;2.282;2022-12-10T03:20:45;18.00;51.50
47354;DHT22;50657;48.830;2.282;2022-12-10T03:23:17;18.00;51.50
47354;DHT22;50657;48.830;2.282;2022-12-10T03:25:46;18.00;51.50
47354;DHT22;50657;48.830;2.282;2022-12-10T03:28:15;18.00;51.40
47354;DHT22;50657;48.830;2.282;2022-12-10T03:30:45;18.00;51.40
47354;DHT22;50657;48.830;2.282;2022-12-10T03:33:13;18.00;51.30
47354;DHT22;50657;48.830;2.282;2022-12-10T03:35:41;18.00;51.30
47354;DHT22;50657;48.830;2.282;2022-12-10T03:38:09;18.00;51.30
47354;DHT22;50657;48.830;2.282;2022-12-10T03:40:36;18.00;51.20
47354;DHT22;50657;48.830;2.282;2022-12-10T03:43:03;18.00;51.20
47354;DHT22;50657;48.830;2.282;2022-12-10T03:45:30;18.00;51.10
47354;DHT22;50657;48.830;2.282;2022-12-10T03:47:59;18.00;51.10
47354;DHT22;50657;48.830;2.282;2022-12-10T03:50:26;18.00;51.00
47354;DHT22;50657;48.830;2.282;2022-12-10T03:52:53;18.00;51.00
47354;DHT22;50657;48.830;2.282;2022-12-10T03:55:20;18.00;51.00
47354;DHT22;50657;48.830;2.282;2022-12-10T03:57:47;18.00;51.00
47354;DHT22;50657;48.830;2.282;2022-12-10T04:00:15;18.00;51.00
47354;DHT22;50657;48.830;2.282;2022-12-10T04:02:42;18.00;51.00
47354;DHT22;50657;48.830;2.282;2022-12-10T04:05:10;18.00;51.00
47354;DHT22;50657;48.830;2.282;2022-12-10T04:07:37;18.00;51.00
47354;DHT22;50657;48.830;2.282;2022-12-10T04:10:05;18.00;50.90
47354;DHT22;50657;48.830;2.282;2022-12-10T04:12:32;18.00;51.00
47354;DHT22;50657;48.830;2.282;2022-12-10T04:14:59;17.90;50.80
47354;DHT22;50657;48.830;2.282;2022-12-10T04:17:44;18.00;50.90
47354;DHT22;50657;48.830;2.282;2022-12-10T04:20:12;17.90;50.80
47354;DHT22;50657;48.830;2.282;2022-12-10T04:22:53;17.90;50.80
47354;DHT22;50657;48.830;2.282;2022-12-10T04:25:37;17.90;50.90
47354;DHT22;50657;48.830;2.282;2022-12-10T04:28:21;17.90;50.90
47354;DHT22;50657;48.830;2.282;2022-12-10T04:30:48;17.90;50.90
47354;DHT22;50657;48.830;2.282;2022-12-10T04:33:15;17.90;50.80
47354;DHT22;50657;48.830;2.282;2022-12-10T04:35:44;17.90;50.80
47354;DHT22;50657;48.830;2.282;2022-12-10T04:38:12;17.90;50.80
47354;DHT22;50657;48.830;2.282;2022-12-10T04:40:39;17.90;51.40
47354;DHT22;50657;48.830;2.282;2022-12-10T04:43:06;17.90;50.70
47354;DHT22;50657;48.830;2.282;2022-12-10T04:45:34;17.90;50.70
47354;DHT22;50657;48.830;2.282;2022-12-10T04:48:01;17.90;50.70
47354;DHT22;50657;48.830;2.282;2022-12-10T04:50:29;17.90;50.70
47354;DHT22;50657;48.830;2.282;2022-12-10T04:52:57;17.90;50.60
47354;DHT22;50657;48.830;2.282;2022-12-10T04:55:24;17.90;50.60
47354;DHT22;50657;48.830;2.282;2022-12-10T04:57:51;18.00;50.60
47354;DHT22;50657;48.830;2.282;2022-12-10T05:00:19;17.90;50.50
47354;DHT22;50657;48.830;2.282;2022-12-10T05:02:48;18.00;50.60
47354;DHT22;50657;48.830;2.282;2022-12-10T05:05:15;18.00;50.50
47354;DHT22;50657;48.830;2.282;2022-12-10T05:07:42;18.00;50.50
47354;DHT22;50657;48.830;2.282;2022-12-10T05:10:11;18.00;50.50
47354;DHT22;50657;48.830;2.282;2022-12-10T05:12:38;18.00;50.50
47354;DHT22;50657;48.830;2.282;2022-12-10T05:15:06;18.00;50.40
47354;DHT22;50657;48.830;2.282;2022-12-10T05:17:33;18.00;50.40
47354;DHT22;50657;48.830;2.282;2022-12-10T05:20:01;18.00;50.40
47354;DHT22;50657;48.830;2.282;2022-12-10T05:22:28;18.00;50.40
47354;DHT22;50657;48.830;2.282;2022-12-10T05:25:14;18.00;50.30
47354;DHT22;50657;48.830;2.282;2022-12-10T05:27:41;18.00;50.30
47354;DHT22;50657;48.830;2.282;2022-12-10T05:30:09;17.90;50.20
47354;DHT22;50657;48.830;2.282;2022-12-10T05:32:37;18.00;50.30
47354;DHT22;50657;48.830;2.282;2022-12-10T05:35:05;18.00;50.20
47354;DHT22;50657;48.830;2.282;2022-12-10T05:37:33;18.00;50.20
47354;DHT22;50657;48.830;2.282;2022-12-10T05:40:00;18.00;50.20
47354;DHT22;50657;48.830;2.282;2022-12-10T05:42:28;17.90;50.10
47354;DHT22;50657;48.830;2.282;2022-12-10T05:44:55;18.00;50.10
47354;DHT22;50657;48.830;2.282;2022-12-10T05:47:22;17.90;50.00
47354;DHT22;50657;48.830;2.282;2022-12-10T05:49:49;18.00;50.10
47354;DHT22;50657;48.830;2.282;2022-12-10T05:52:16;18.00;50.00
47354;DHT22;50657;48.830;2.282;2022-12-10T05:54:43;17.90;50.00
47354;DHT22;50657;48.830;2.282;2022-12-10T05:57:11;17.90;49.90
47354;DHT22;50657;48.830;2.282;2022-12-10T05:59:39;18.00;49.90
47354;DHT22;50657;48.830;2.282;2022-12-10T06:02:06;17.90;49.80
47354;DHT22;50657;48.830;2.282;2022-12-10T06:04:34;17.90;49.80
47354;DHT22;50657;48.830;2.282;2022-12-10T06:07:01;17.90;49.80
47354;DHT22;50657;48.830;2.282;2022-12-10T06:09:28;17.90;49.80
47354;DHT22;50657;48.830;2.282;2022-12-10T06:11:55;17.90;49.80
47354;DHT22;50657;48.830;2.282;2022-12-10T06:14:22;17.90;49.70
47354;DHT22;50657;48.830;2.282;2022-12-10T06:16:50;18.00;49.70
47354;DHT22;50657;48.830;2.282;2022-12-10T06:19:17;17.90;49.60
47354;DHT22;50657;48.830;2.282;2022-12-10T06:21:44;17.90;49.60
47354;DHT22;50657;48.830;2.282;2022-12-10T06:24:11;17.90;49.60
47354;DHT22;50657;48.830;2.282;2022-12-10T06:26:38;17.90;49.50
47354;DHT22;50657;48.830;2.282;2022-12-10T06:29:05;17.90;49.50
47354;DHT22;50657;48.830;2.282;2022-12-10T06:31:32;17.90;49.50
47354;DHT22;50657;48.830;2.282;2022-12-10T06:34:01;17.90;49.50
47354;DHT22;50657;48.830;2.282;2022-12-10T06:36:28;18.00;49.60
47354;DHT22;50657;48.830;2.282;2022-12-10T06:38:55;18.00;49.50
47354;DHT22;50657;48.830;2.282;2022-12-10T06:41:22;17.90;49.40
47354;DHT22;50657;48.830;2.282;2022-12-10T06:43:49;18.00;49.50
47354;DHT22;50657;48.830;2.282;2022-12-10T06:46:18;17.90;49.40
47354;DHT22;50657;48.830;2.282;2022-12-10T06:48:46;18.00;49.60
47354;DHT22;50657;48.830;2.282;2022-12-10T06:51:14;17.90;49.50
47354;DHT22;50657;48.830;2.282;2022-12-10T06:53:43;18.00;49.50
47354;DHT22;50657;48.830;2.282;2022-12-10T06:56:12;17.90;49.40
47354;DHT22;50657;48.830;2.282;2022-12-10T06:58:40;17.90;49.40
47354;DHT22;50657;48.830;2.282;2022-12-10T07:01:09;17.90;49.40
47354;DHT22;50657;48.830;2.282;2022-12-10T07:03:37;18.00;49.60
47354;DHT22;50657;48.830;2.282;2022-12-10T07:06:06;17.90;49.40
47354;DHT22;50657;48.830;2.282;2022-12-10T07:08:36;17.90;49.40
47354;DHT22;50657;48.830;2.282;2022-12-10T07:11:04;17.90;49.30
47354;DHT22;50657;48.830;2.282;2022-12-10T07:13:31;17.90;49.30
47354;DHT22;50657;48.830;2.282;2022-12-10T07:15:58;17.90;49.30
47354;DHT22;50657;48.830;2.282;2022-12-10T07:18:26;17.90;49.30
47354;DHT22;50657;48.830;2.282;2022-12-10T07:20:54;17.90;49.30
47354;DHT22;50657;48.830;2.282;2022-12-10T07:23:21;17.90;49.80
47354;DHT22;50657;48.830;2.282;2022-12-10T07:25:50;17.90;49.20
47354;DHT22;50657;48.830;2.282;2022-12-10T07:28:17;17.90;49.20
47354;DHT22;50657;48.830;2.282;2022-12-10T07:30:44;17.90;49.20
47354;DHT22;50657;48.830;2.282;2022-12-10T07:33:11;17.90;49.20
47354;DHT22;50657;48.830;2.282;2022-12-10T07:35:39;17.90;49.20
47354;DHT22;50657;48.830;2.282;2022-12-10T07:38:06;17.90;49.20
47354;DHT22;50657;48.830;2.282;2022-12-10T07:40:33;17.90;49.10
47354;DHT22;50657;48.830;2.282;2022-12-10T07:43:01;17.90;49.10
47354;DHT22;50657;48.830;2.282;2022-12-10T07:45:29;17.90;49.10
47354;DHT22;50657;48.830;2.282;2022-12-10T07:47:56;17.90;49.10
47354;DHT22;50657;48.830;2.282;2022-12-10T07:50:23;17.90;49.10
47354;DHT22;50657;48.830;2.282;2022-12-10T07:52:50;17.90;49.10
47354;DHT22;50657;48.830;2.282;2022-12-10T07:55:17;17.90;49.10
47354;DHT22;50657;48.830;2.282;2022-12-10T07:57:44;17.90;49.10
47354;DHT22;50657;48.830;2.282;2022-12-10T08:00:13;17.90;49.00
47354;DHT22;50657;48.830;2.282;2022-12-10T08:02:40;17.90;49.00
47354;DHT22;50657;48.830;2.282;2022-12-10T08:05:08;17.90;49.00
47354;DHT22;50657;48.830;2.282;2022-12-10T08:07:35;18.00;49.00
47354;DHT22;50657;48.830;2.282;2022-12-10T08:10:02;18.00;49.00
47354;DHT22;50657;48.830;2.282;2022-12-10T08:12:30;18.00;49.10
47354;DHT22;50657;48.830;2.282;2022-12-10T08:14:57;18.00;49.00
47354;DHT22;50657;48.830;2.282;2022-12-10T08:17:25;18.00;49.00
47354;DHT22;50657;48.830;2.282;2022-12-10T08:19:52;18.00;49.00
47354;DHT22;50657;48.830;2.282;2022-12-10T08:22:20;18.00;49.00
47354;DHT22;50657;48.830;2.282;2022-12-10T08:24:47;18.00;49.00
47354;DHT22;50657;48.830;2.282;2022-12-10T08:27:14;18.00;49.00
47354;DHT22;50657;48.830;2.282;2022-12-10T08:29:42;18.00;49.10
47354;DHT22;50657;48.830;2.282;2022-12-10T08:32:09;18.00;49.40
47354;DHT22;50657;48.830;2.282;2022-12-10T08:34:38;18.10;49.90
47354;DHT22;50657;48.830;2.282;2022-12-10T08:37:05;18.20;50.10
47354;DHT22;50657;48.830;2.282;2022-12-10T08:39:32;18.50;50.10
47354;DHT22;50657;48.830;2.282;2022-12-10T08:41:59;18.80;50.00
47354;DHT22;50657;48.830;2.282;2022-12-10T08:44:26;19.00;49.60
47354;DHT22;50657;48.830;2.282;2022-12-10T08:46:53;19.20;49.40
47354;DHT22;50657;48.830;2.282;2022-12-10T08:49:20;19.40;49.20
47354;DHT22;50657;48.830;2.282;2022-12-10T08:51:49;19.60;48.70
47354;DHT22;50657;48.830;2.282;2022-12-10T08:54:16;19.80;48.60
47354;DHT22;50657;48.830;2.282;2022-12-10T08:56:43;19.90;48.40
47354;DHT22;50657;48.830;2.282;2022-12-10T08:59:10;20.10;48.20
47354;DHT22;50657;48.830;2.282;2022-12-10T09:01:37;20.30;48.00
47354;DHT22;50657;48.830;2.282;2022-12-10T09:04:04;20.40;47.80
47354;DHT22;50657;48.830;2.282;2022-12-10T09:06:31;20.60;47.60
47354;DHT22;50657;48.830;2.282;2022-12-10T09:09:00;20.80;47.50
47354;DHT22;50657;48.830;2.282;2022-12-10T09:11:30;20.90;47.20
47354;DHT22;50657;48.830;2.282;2022-12-10T09:13:58;21.00;47.10
47354;DHT22;50657;48.830;2.282;2022-12-10T09:16:28;21.20;46.90
47354;DHT22;50657;48.830;2.282;2022-12-10T09:18:56;21.40;46.90
47354;DHT22;50657;48.830;2.282;2022-12-10T09:21:23;21.40;46.80
47354;DHT22;50657;48.830;2.282;2022-12-10T09:23:50;21.50;46.60
47354;DHT22;50657;48.830;2.282;2022-12-10T09:26:20;21.70;44.90
47354;DHT22;50657;48.830;2.282;2022-12-10T09:28:47;21.80;44.30
47354;DHT22;50657;48.830;2.282;2022-12-10T09:31:16;22.00;43.80
47354;DHT22;50657;48.830;2.282;2022-12-10T09:33:45;22.20;44.40
47354;DHT22;50657;48.830;2.282;2022-12-10T09:36:13;22.40;44.20
47354;DHT22;50657;48.830;2.282;2022-12-10T09:38:42;22.50;44.00
47354;DHT22;50657;48.830;2.282;2022-12-10T09:41:32;22.70;43.60
47354;DHT22;50657;48.830;2.282;2022-12-10T09:44:07;22.80;44.00
47354;DHT22;50657;48.830;2.282;2022-12-10T09:46:43;23.00;44.00
47354;DHT22;50657;48.830;2.282;2022-12-10T09:49:17;23.20;43.70
47354;DHT22;50657;48.830;2.282;2022-12-10T09:51:47;23.30;42.80
47354;DHT22;50657;48.830;2.282;2022-12-10T09:54:19;23.30;42.00
47354;DHT22;50657;48.830;2.282;2022-12-10T09:56:50;23.30;41.20
47354;DHT22;50657;48.830;2.282;2022-12-10T09:59:21;23.30;40.50
47354;DHT22;50657;48.830;2.282;2022-12-10T10:02:00;23.30;40.40
47354;DHT22;50657;48.830;2.282;2022-12-10T10:04:28;23.20;40.40
47354;DHT22;50657;48.830;2.282;2022-12-10T10:06:56;23.20;39.80
47354;DHT22;50657;48.830;2.282;2022-12-10T10:09:24;23.20;40.20
47354;DHT22;50657;48.830;2.282;2022-12-10T10:11:53;23.10;39.50
47354;DHT22;50657;48.830;2.282;2022-12-10T10:14:25;23.00;40.70
47354;DHT22;50657;48.830;2.282;2022-12-10T10:16:56;23.00;40.80
47354;DHT22;50657;48.830;2.282;2022-12-10T10:19:27;22.90;40.80
47354;DHT22;50657;48.830;2.282;2022-12-10T10:21:55;22.80;40.80
47354;DHT22;50657;48.830;2.282;2022-12-10T10:24:27;22.70;40.80
47354;DHT22;50657;48.830;2.282;2022-12-10T10:26:57;22.60;41.00
47354;DHT22;50657;48.830;2.282;2022-12-10T10:29:25;22.60;41.10
47354;DHT22;50657;48.830;2.282;2022-12-10T10:32:13;22.40;41.20
47354;DHT22;50657;48.830;2.282;2022-12-10T10:34:42;22.40;41.30
47354;DHT22;50657;48.830;2.282;2022-12-10T10:37:16;22.30;42.00
47354;DHT22;50657;48.830;2.282;2022-12-10T10:39:49;22.20;41.40
47354;DHT22;50657;48.830;2.282;2022-12-10T10:42:27;22.10;41.60
47354;DHT22;50657;48.830;2.282;2022-12-10T10:44:54;22.00;41.60
47354;DHT22;50657;48.830;2.282;2022-12-10T10:47:27;22.00;41.50
47354;DHT22;50657;48.830;2.282;2022-12-10T10:49:54;22.00;41.50
47354;DHT22;50657;48.830;2.282;2022-12-10T10:52:22;21.90;41.50
47354;DHT22;50657;48.830;2.282;2022-12-10T10:54:49;21.80;41.50
47354;DHT22;50657;48.830;2.282;2022-12-10T10:57:21;21.80;41.40
47354;DHT22;50657;48.830;2.282;2022-12-10T10:59:52;21.70;41.30
47354;DHT22;50657;48.830;2.282;2022-12-10T11:02:25;21.70;41.30
47354;DHT22;50657;48.830;2.282;2022-12-10T11:04:54;21.60;41.20
47354;DHT22;50657;48.830;2.282;2022-12-10T11:07:33;21.60;41.10
47354;DHT22;50657;48.830;2.282;2022-12-10T11:10:00;21.50;40.90
47354;DHT22;50657;48.830;2.282;2022-12-10T11:12:33;21.50;41.30
47354;DHT22;50657;48.830;2.282;2022-12-10T11:15:04;21.40;41.20
47354;DHT22;50657;48.830;2.282;2022-12-10T11:17:46;21.40;41.40
47354;DHT22;50657;48.830;2.282;2022-12-10T11:20:17;21.40;41.40
47354;DHT22;50657;48.830;2.282;2022-12-10T11:22:50;21.40;41.90
47354;DHT22;50657;48.830;2.282;2022-12-10T11:25:18;21.50;41.90
47354;DHT22;50657;48.830;2.282;2022-12-10T11:27:52;21.50;41.80
47354;DHT22;50657;48.830;2.282;2022-12-10T11:30:25;21.50;41.40
47354;DHT22;50657;48.830;2.282;2022-12-10T11:33:01;21.60;41.40
47354;DHT22;50657;48.830;2.282;2022-12-10T11:35:42;21.60;41.90
47354;DHT22;50657;48.830;2.282;2022-12-10T11:38:20;21.60;41.30
47354;DHT22;50657;48.830;2.282;2022-12-10T11:40:50;21.60;41.50
47354;DHT22;50657;48.830;2.282;2022-12-10T11:43:45;21.70;41.50
47354;DHT22;50657;48.830;2.282;2022-12-10T11:46:32;21.80;41.60
47354;DHT22;50657;48.830;2.282;2022-12-10T11:49:13;21.80;41.70
47354;DHT22;50657;48.830;2.282;2022-12-10T11:51:46;21.80;42.10
47354;DHT22;50657;48.830;2.282;2022-12-10T11:54:28;21.80;42.20
47354;DHT22;50657;48.830;2.282;2022-12-10T11:57:05;21.90;42.50
47354;DHT22;50657;48.830;2.282;2022-12-10T11:59:39;21.90;42.90
47354;DHT22;50657;48.830;2.282;2022-12-10T12:02:29;22.00;42.80
47354;DHT22;50657;48.830;2.282;2022-12-10T12:05:10;22.00;42.40
47354;DHT22;50657;48.830;2.282;2022-12-10T12:07:43;22.10;42.20
47354;DHT22;50657;48.830;2.282;2022-12-10T12:10:42;22.10;42.10
47354;DHT22;50657;48.830;2.282;2022-12-10T12:13:15;22.10;42.00
47354;DHT22;50657;48.830;2.282;2022-12-10T12:15:46;22.10;41.90
47354;DHT22;50657;48.830;2.282;2022-12-10T12:18:21;22.20;42.10
47354;DHT22;50657;48.830;2.282;2022-12-10T12:20:53;22.20;41.80
47354;DHT22;50657;48.830;2.282;2022-12-10T12:23:25;22.20;41.70
47354;DHT22;50657;48.830;2.282;2022-12-10T12:25:57;22.30;41.70
47354;DHT22;50657;48.830;2.282;2022-12-10T12:28:29;22.30;41.90
47354;DHT22;50657;48.830;2.282;2022-12-10T12:31:01;22.30;41.60
47354;DHT22;50657;48.830;2.282;2022-12-10T12:33:39;22.30;41.70
47354;DHT22;50657;48.830;2.282;2022-12-10T12:36:11;22.30;41.60
47354;DHT22;50657;48.830;2.282;2022-12-10T12:38:45;22.30;41.50
47354;DHT22;50657;48.830;2.282;2022-12-10T12:41:24;22.40;41.80
47354;DHT22;50657;48.830;2.282;2022-12-10T12:43:59;22.40;41.80
47354;DHT22;50657;48.830;2.282;2022-12-10T12:46:33;22.40;41.50
47354;DHT22;50657;48.830;2.282;2022-12-10T12:49:12;22.40;41.30
47354;DHT22;50657;48.830;2.282;2022-12-10T12:51:45;22.40;41.20
47354;DHT22;50657;48.830;2.282;2022-12-10T12:54:15;22.40;40.80
47354;DHT22;50657;48.830;2.282;2022-12-10T12:56:55;22.30;40.70
47354;DHT22;50657;48.830;2.282;2022-12-10T12:59:35;22.30;40.50
47354;DHT22;50657;48.830;2.282;2022-12-10T13:02:17;22.30;40.30
47354;DHT22;50657;48.830;2.282;2022-12-10T13:04:47;22.30;40.50
47354;DHT22;50657;48.830;2.282;2022-12-10T13:07:31;22.30;40.50
47354;DHT22;50657;48.830;2.282;2022-12-10T13:13:15;22.20;39.20
47354;DHT22;50657;48.830;2.282;2022-12-10T13:15:43;22.20;38.30
47354;DHT22;50657;48.830;2.282;2022-12-10T13:18:38;22.10;38.00
47354;DHT22;50657;48.830;2.282;2022-12-10T13:21:27;22.10;37.30
47354;DHT22;50657;48.830;2.282;2022-12-10T13:24:06;22.10;37.00
47354;DHT22;50657;48.830;2.282;2022-12-10T13:26:34;22.00;36.60
47354;DHT22;50657;48.830;2.282;2022-12-10T13:29:19;21.90;36.50
47354;DHT22;50657;48.830;2.282;2022-12-10T13:31:55;21.90;36.20
47354;DHT22;50657;48.830;2.282;2022-12-10T13:34:30;21.80;36.30
47354;DHT22;50657;48.830;2.282;2022-12-10T13:37:27;21.80;36.40
47354;DHT22;50657;48.830;2.282;2022-12-10T13:40:11;21.70;36.40
47354;DHT22;50657;48.830;2.282;2022-12-10T13:42:42;21.70;36.30
47354;DHT22;50657;48.830;2.282;2022-12-10T13:45:33;21.60;36.20
47354;DHT22;50657;48.830;2.282;2022-12-10T13:48:30;21.60;36.60
47354;DHT22;50657;48.830;2.282;2022-12-10T13:51:16;21.70;37.30
47354;DHT22;50657;48.830;2.282;2022-12-10T13:53:55;21.60;38.00
47354;DHT22;50657;48.830;2.282;2022-12-10T13:56:29;21.70;38.90
47354;DHT22;50657;48.830;2.282;2022-12-10T13:59:08;21.70;39.30
47354;DHT22;50657;48.830;2.282;2022-12-10T14:01:42;21.70;39.80
47354;DHT22;50657;48.830;2.282;2022-12-10T14:04:25;21.70;40.00
47354;DHT22;50657;48.830;2.282;2022-12-10T14:06:58;21.80;40.40
47354;DHT22;50657;48.830;2.282;2022-12-10T14:09:30;21.80;40.40
47354;DHT22;50657;48.830;2.282;2022-12-10T14:12:02;21.80;40.40
47354;DHT22;50657;48.830;2.282;2022-12-10T14:14:34;21.80;41.00
47354;DHT22;50657;48.830;2.282;2022-12-10T14:17:05;21.80;40.30
47354;DHT22;50657;48.830;2.282;2022-12-10T14:19:33;21.90;39.80
47354;DHT22;50657;48.830;2.282;2022-12-10T14:22:05;21.90;38.60
47354;DHT22;50657;48.830;2.282;2022-12-10T14:24:35;21.80;37.30
47354;DHT22;50657;48.830;2.282;2022-12-10T14:27:11;21.80;36.40
47354;DHT22;50657;48.830;2.282;2022-12-10T14:29:42;21.80;35.90
47354;DHT22;50657;48.830;2.282;2022-12-10T14:32:13;21.70;36.40
47354;DHT22;50657;48.830;2.282;2022-12-10T14:34:41;21.60;35.80
47354;DHT22;50657;48.830;2.282;2022-12-10T14:37:12;21.60;35.50
47354;DHT22;50657;48.830;2.282;2022-12-10T14:39:41;21.60;35.20
47354;DHT22;50657;48.830;2.282;2022-12-10T14:42:13;21.50;35.20
47354;DHT22;50657;48.830;2.282;2022-12-10T14:44:41;21.50;35.30
47354;DHT22;50657;48.830;2.282;2022-12-10T14:47:13;21.40;35.60
47354;DHT22;50657;48.830;2.282;2022-12-10T14:49:42;21.40;35.80
47354;DHT22;50657;48.830;2.282;2022-12-10T14:52:13;21.30;36.00
47354;DHT22;50657;48.830;2.282;2022-12-10T14:54:43;21.20;36.10
47354;DHT22;50657;48.830;2.282;2022-12-10T14:57:20;21.20;36.50
47354;DHT22;50657;48.830;2.282;2022-12-10T14:59:59;21.10;36.70
47354;DHT22;50657;48.830;2.282;2022-12-10T15:02:29;21.00;37.30
47354;DHT22;50657;48.830;2.282;2022-12-10T15:04:57;21.00;37.90
47354;DHT22;50657;48.830;2.282;2022-12-10T15:07:30;21.00;38.10
47354;DHT22;50657;48.830;2.282;2022-12-10T15:10:03;20.90;38.00
47354;DHT22;50657;48.830;2.282;2022-12-10T15:12:35;20.80;38.30
47354;DHT22;50657;48.830;2.282;2022-12-10T15:15:12;20.80;38.60
47354;DHT22;50657;48.830;2.282;2022-12-10T15:17:42;20.70;39.00
47354;DHT22;50657;48.830;2.282;2022-12-10T15:20:23;20.70;39.20
47354;DHT22;50657;48.830;2.282;2022-12-10T15:22:51;20.60;39.20
47354;DHT22;50657;48.830;2.282;2022-12-10T15:25:28;20.50;39.40
47354;DHT22;50657;48.830;2.282;2022-12-10T15:27:58;20.50;39.60
47354;DHT22;50657;48.830;2.282;2022-12-10T15:30:35;20.40;39.70
47354;DHT22;50657;48.830;2.282;2022-12-10T15:33:14;20.40;39.90
47354;DHT22;50657;48.830;2.282;2022-12-10T15:35:47;20.30;40.10
47354;DHT22;50657;48.830;2.282;2022-12-10T15:38:22;20.20;40.10
47354;DHT22;50657;48.830;2.282;2022-12-10T15:40:56;20.20;40.40
47354;DHT22;50657;48.830;2.282;2022-12-10T15:43:26;20.10;40.80
47354;DHT22;50657;48.830;2.282;2022-12-10T15:45:55;20.10;40.90
47354;DHT22;50657;48.830;2.282;2022-12-10T15:48:22;20.00;41.10
47354;DHT22;50657;48.830;2.282;2022-12-10T15:50:51;19.90;41.30
47354;DHT22;50657;48.830;2.282;2022-12-10T15:53:25;19.90;41.50
47354;DHT22;50657;48.830;2.282;2022-12-10T15:55:54;19.80;41.60
47354;DHT22;50657;48.830;2.282;2022-12-10T15:58:21;19.80;41.70